createdAt,value
2023-04-30T04:06:58.854Z,19.70
2023-04-30T04:09:47.046Z,16.00
2023-04-30T04:12:14.810Z,20.37
2023-04-30T04:14:42.657Z,18.50
2023-04-30T06:38:50.766Z,12.03
2023-04-30T08:04:18.588Z,6.60
2023-04-30T08:06:46.446Z,5.38
2023-04-30T08:09:15.744Z,6.28
2023-04-30T08:11:43.460Z,5.20
2023-04-30T08:14:12.650Z,6.68
2023-04-30T08:16:40.726Z,25.38
2023-04-30T08:19:08.503Z,5.15
2023-04-30T08:21:40.328Z,5.13
2023-04-30T08:24:09.822Z,6.55
2023-04-30T08:56:51.662Z,2.97
2023-04-30T09:44:05.502Z,2.00
2023-04-30T10:29:34.777Z,2.97
2023-04-30T10:40:40.542Z,2.83
2023-04-30T10:45:10.410Z,2.30
2023-04-30T12:18:27.887Z,2.05
2023-04-30T13:10:35.696Z,2.20
2023-04-30T14:52:15.049Z,1.92
2023-04-30T14:59:31.360Z,2.58
2023-04-30T15:03:33.662Z,3.03
2023-04-30T15:26:39.264Z,1.80
2023-04-30T16:08:17.527Z,4.17
2023-04-30T16:10:46.254Z,2.97
2023-04-30T16:13:14.347Z,2.23
2023-04-30T16:15:42.211Z,1.23
2023-04-30T16:18:10.096Z,1.50
2023-04-30T16:20:39.092Z,2.07
2023-04-30T16:23:06.905Z,1.70
2023-04-30T16:25:40.342Z,1.87
2023-04-30T16:28:09.040Z,1.50
2023-04-30T16:30:36.883Z,3.30
2023-04-30T16:33:05.726Z,1.90
2023-04-30T16:35:33.684Z,1.80
2023-04-30T16:38:04.082Z,2.23
2023-04-30T16:40:40.654Z,3.03
2023-04-30T16:43:09.956Z,1.83
2023-04-30T16:45:40.776Z,2.30
2023-04-30T16:48:28.900Z,1.83
2023-04-30T17:16:24.338Z,2.23
2023-04-30T17:18:57.917Z,2.43
2023-04-30T17:29:06.297Z,1.50
2023-04-30T17:31:38.057Z,4.70
2023-04-30T17:34:10.271Z,1.83
2023-04-30T17:37:37.922Z,1.67
2023-04-30T17:43:53.069Z,1.63
2023-04-30T17:58:20.226Z,5.50
2023-04-30T18:53:39.677Z,3.17
2023-04-30T19:17:10.877Z,2.10
2023-04-30T19:19:43.583Z,2.60
2023-04-30T19:22:12.702Z,4.37
2023-04-30T19:24:40.402Z,1.70
2023-04-30T19:44:22.457Z,2.63
2023-04-30T19:50:27.287Z,3.57
2023-04-30T19:53:41.660Z,2.60
2023-04-30T19:56:09.627Z,2.77
2023-04-30T22:22:00.005Z,3.63
2023-04-30T23:00:38.221Z,4.00
2023-04-30T23:03:05.961Z,4.77
2023-04-30T23:05:33.749Z,4.87
2023-04-30T23:08:01.421Z,6.17
2023-04-30T23:10:29.457Z,4.53
2023-04-30T23:12:58.642Z,4.93
2023-04-30T23:15:26.835Z,8.43
2023-04-30T23:17:56.957Z,6.20
2023-04-30T23:20:24.879Z,3.87
2023-04-30T23:22:52.645Z,4.63
2023-04-30T23:25:20.443Z,4.80
2023-04-30T23:27:50.654Z,6.13
2023-04-30T23:30:18.502Z,5.43
2023-04-30T23:32:46.623Z,3.70
2023-04-30T23:35:15.832Z,6.43
2023-04-30T23:37:43.621Z,4.87
2023-04-30T23:40:11.778Z,3.77
2023-04-30T23:42:39.552Z,5.33
2023-04-30T23:45:08.577Z,4.87
2023-04-30T23:47:36.715Z,5.37
2023-04-30T23:50:04.661Z,3.80
2023-04-30T23:52:35.225Z,4.63
2023-04-30T23:55:03.532Z,5.00
2023-04-30T23:57:31.314Z,4.80
